Skip Navigation Links
NOAA logo - Click to go to the NOAA homepage
NOAA's National Weather Service
Alaska Aviation Weather Unit
  NWS logo - Click to go to the NWS homepage
Left Navbar Graphic     10 AKDT = 18 GMT

   
NOAA is celebrating 200 years of science, service, and stewardship. Visit the NOAA 200th celebration Web site to learn more.
USA.gov is the U.S. Government's official Web portal to all Federal, state and local government Web resources and services.
Facebook
NWS on Facebook

Important Change Regarding the AAWU Web Presence

 

Over the last several months, the AAWU has been working to navigate its webpages to a nationally supported server. Security, as well as other needs, have necessitated the change.  We have been given an extension for the site changeover while we diligently work at addressing feedback received. As of July 14, 2017, aawu.arh.noaa.gov will be discontinued. The new AAWU web address is weather.gov/aawu. It is now live and will run in-parallel with the old site until it is discontinued on July 14, 2017. Please continue to send any feedback or questions regarding the new webpages to nws.ar.aawu.webauthors@noaa.gov.  Thank you for your patience during this time of transition.
AAWU Home :: Display TAF Add Bookmark
METAR PALG 261256Z AUTO 00000KT FEW023 OVC050 07/06 A2983 RMK AO2
 SLP299 PWINO FZRANO TSNO RVRNO=

METAR PALG 261356Z AUTO 00000KT SCT026 OVC050 07/04 A2983 RMK AO2
 SLP299 PWINO FZRANO TSNO RVRNO=

SPECI PALG 261442Z AUTO 25003KT BKN010 BKN031 OVC040 06/04 A2983 RMK AO2
     PWINO $=

SPECI PALG 261451Z AUTO 25004KT SCT010 BKN037 OVC046 06/04 A2983 RMK AO2
     PWINO $=

METAR PALG 261456Z AUTO VRB03KT SCT010 BKN037 OVC050 06/04 A2983 RMK
 AO2 SLP299 57003 PWINO FZRANO TSNO RVRNO=

SPECI PALG 261515Z AUTO 20003KT BKN010 OVC044 06/04 A2983 RMK AO2 CIG
     008V014 PWINO $=

METAR PALG 261556Z AUTO 00000KT OVC010 06/04 A2984 RMK AO2 SLP299 PWINO
     FZRANO TSNO RVRNO=

METAR PALG 261656Z AUTO 36004KT SCT012 BKN030 OVC055 06/04 A2984 RMK AO2
     SLP299 PWINO FZRANO TSNO RVRNO=

METAR PALG 261756Z AUTO VRB03KT OVC055 06/04 A2984 RMK AO2 SLP299
 10070 20060 52003 PWINO FZRANO TSNO RVRNO=


NOAA's National Weather Service
Alaska Aviation Weather Unit
6930 Sand Lake Road
Anchorage, AK 99502-1845
Disclaimer
Credits
Glossary
Privacy Policy
About Us
Career Opportunities
Contact AAWU Internet Services Site last modified: April, 17th 2012